createdAt,value
2017-04-24T00:00:24.212Z,60.94
2017-04-24T00:00:50.293Z,60.75
2017-04-24T00:01:16.373Z,60.94
2017-04-24T00:01:42.476Z,60.94
2017-04-24T00:02:08.582Z,61.04
2017-04-24T00:02:34.662Z,61.23
2017-04-24T00:03:00.764Z,60.94
2017-04-24T00:03:26.868Z,61.04
2017-04-24T00:03:52.994Z,61.99
2017-04-24T00:04:19.120Z,61.71
2017-04-24T00:04:45.227Z,61.61
2017-04-24T00:05:11.349Z,61.71
2017-04-24T00:05:37.453Z,61.71
2017-04-24T00:06:03.556Z,61.71
2017-04-24T00:06:29.675Z,61.42
2017-04-24T00:06:55.779Z,62.27
2017-04-24T00:07:21.905Z,62.18
2017-04-24T00:07:48.059Z,62.27
2017-04-24T00:08:14.184Z,62.27
2017-04-24T00:08:40.309Z,62.08
2017-04-24T00:09:06.436Z,61.61
2017-04-24T00:09:32.542Z,62.18
2017-04-24T00:09:58.647Z,61.48
2017-04-24T00:10:24.745Z,61.87
2017-04-24T00:10:50.829Z,61.8
2017-04-24T00:11:16.908Z,62.24
2017-04-24T00:11:43.013Z,61.99
2017-04-24T00:12:09.090Z,61.96
2017-04-24T00:12:35.199Z,61.99
2017-04-24T00:13:01.275Z,62.18
2017-04-24T00:13:27.404Z,62.27
2017-04-24T00:13:53.526Z,62.27
2017-04-24T00:14:19.677Z,61.99
2017-04-24T00:14:45.777Z,62.27
2017-04-24T00:15:11.927Z,61.61
2017-04-24T00:15:38.006Z,61.52
2017-04-24T00:16:04.086Z,61.61
2017-04-24T00:16:30.188Z,61.71
2017-04-24T00:16:56.315Z,61.68
2017-04-24T00:17:22.420Z,62.24
2017-04-24T00:17:48.551Z,62.18
2017-04-24T00:18:14.677Z,61.9
2017-04-24T00:18:40.758Z,61.8
2017-04-24T00:19:06.863Z,62.56
2017-04-24T00:19:33.013Z,61.99
2017-04-24T00:19:59.095Z,61.8
2017-04-24T00:20:25.195Z,61.9
2017-04-24T00:20:51.278Z,61.87
2017-04-24T00:21:17.380Z,62.43
2017-04-24T00:21:43.483Z,62.34
2017-04-24T00:22:09.587Z,62.24
2017-04-24T00:22:35.664Z,62.15
2017-04-24T00:23:01.744Z,62.46
2017-04-24T00:23:27.869Z,62.75
2017-04-24T00:23:54.018Z,62.46
2017-04-24T00:24:20.142Z,61.87
2017-04-24T00:24:46.246Z,61.99
2017-04-24T00:25:12.373Z,62.05
2017-04-24T00:25:38.455Z,61.77
2017-04-24T00:26:04.556Z,61.87
2017-04-24T00:26:30.647Z,62.53
2017-04-24T00:26:56.737Z,62.53
2017-04-24T00:27:22.842Z,62.34
2017-04-24T00:27:48.968Z,62.34
2017-04-24T00:28:15.099Z,62.34
2017-04-24T00:28:41.248Z,62.62
2017-04-24T00:29:07.354Z,62.62
2017-04-24T00:29:33.457Z,62.91
2017-04-24T00:29:59.537Z,62.62
2017-04-24T00:30:25.643Z,62.72
2017-04-24T00:30:51.744Z,62.62
2017-04-24T00:31:17.823Z,62.34
2017-04-24T00:31:43.902Z,62.72
2017-04-24T00:32:10.001Z,62.91
2017-04-24T00:32:36.128Z,62.91
2017-04-24T00:33:02.252Z,62.62
2017-04-24T00:33:28.380Z,62.34
2017-04-24T00:33:54.530Z,62.72
2017-04-24T00:34:20.633Z,62.81
2017-04-24T00:34:46.758Z,63.01
2017-04-24T00:35:12.860Z,63.67
2017-04-24T00:35:39.011Z,63.29
2017-04-24T00:36:05.115Z,63.76
2017-04-24T00:36:31.241Z,63.1
2017-04-24T00:36:57.323Z,63.2
2017-04-24T00:37:23.431Z,63.67
2017-04-24T00:37:49.573Z,64.11
2017-04-24T00:38:15.675Z,64.02
2017-04-24T00:38:41.782Z,64.11
2017-04-24T00:39:07.911Z,64.49
2017-04-24T00:39:34.041Z,64.4
2017-04-24T00:40:00.168Z,64.3
2017-04-24T00:40:26.246Z,64.21
2017-04-24T00:40:52.326Z,64.21
2017-04-24T00:41:18.405Z,64.4
2017-04-24T00:41:44.489Z,64.4
2017-04-24T00:42:10.571Z,64.59
2017-04-24T00:42:36.653Z,64.59
2017-04-24T00:43:02.758Z,64.59
2017-04-24T00:43:28.860Z,64.59
2017-04-24T00:43:54.964Z,64.3
2017-04-24T00:44:21.046Z,64.4
2017-04-24T00:44:47.222Z,64.21
2017-04-24T00:45:13.301Z,64.21
2017-04-24T00:45:39.406Z,64.49
2017-04-24T00:46:05.489Z,64.49
2017-04-24T00:46:31.570Z,64.49
2017-04-24T00:46:57.674Z,64.59
2017-04-24T00:47:23.863Z,64.3
2017-04-24T00:47:49.944Z,64.59
2017-04-24T00:48:16.070Z,64.49
2017-04-24T00:48:42.175Z,64.59
2017-04-24T00:49:08.313Z,64.87
2017-04-24T00:49:34.394Z,64.78
2017-04-24T00:50:00.521Z,64.87
2017-04-24T00:50:26.648Z,64.78
2017-04-24T00:50:52.753Z,64.49
2017-04-24T00:51:18.832Z,64.4
2017-04-24T00:51:44.915Z,64.49
2017-04-24T00:52:11.016Z,64.4
2017-04-24T00:52:37.121Z,64.59
2017-04-24T00:53:03.250Z,64.69
2017-04-24T00:53:29.332Z,65.16
2017-04-24T00:53:55.458Z,65.06
2017-04-24T00:54:21.541Z,65.16
2017-04-24T00:54:47.636Z,64.97
2017-04-24T00:55:13.724Z,65.16
2017-04-24T00:55:39.831Z,65.25
2017-04-24T00:56:05.934Z,64.87
2017-04-24T00:56:32.039Z,64.97
2017-04-24T00:56:58.146Z,65.06
2017-04-24T00:57:24.226Z,65.35
2017-04-24T00:57:50.308Z,65.35
2017-04-24T00:58:16.408Z,65.35
2017-04-24T00:58:42.512Z,65.44
2017-04-24T00:59:08.640Z,64.97
2017-04-24T00:59:34.722Z,65.35
2017-04-24T01:00:00.824Z,64.78
2017-04-24T01:00:26.926Z,64.87
2017-04-24T01:00:53.027Z,64.78
2017-04-24T01:01:19.109Z,64.49
2017-04-24T01:01:45.186Z,64.4
2017-04-24T01:02:11.266Z,64.87
2017-04-24T01:02:37.393Z,64.78
2017-04-24T01:03:03.521Z,64.4
2017-04-24T01:03:29.648Z,64.49
2017-04-24T01:03:55.727Z,64.78
2017-04-24T01:04:21.857Z,64.78
2017-04-24T01:04:47.940Z,64.78
2017-04-24T01:05:14.066Z,64.59
2017-04-24T01:05:40.145Z,64.87
2017-04-24T01:06:06.225Z,65.25
2017-04-24T01:06:32.305Z,65.06
2017-04-24T01:06:58.385Z,65.06
2017-04-24T01:07:24.512Z,64.87
2017-04-24T01:07:50.633Z,65.16
2017-04-24T01:08:16.762Z,65.54
2017-04-24T01:08:42.864Z,65.82
2017-04-24T01:09:08.968Z,65.82
2017-04-24T01:09:35.096Z,65.82
2017-04-24T01:10:01.176Z,65.63
2017-04-24T01:10:27.302Z,65.63
2017-04-24T01:10:53.401Z,65.92
2017-04-24T01:11:19.526Z,65.82
2017-04-24T01:11:45.608Z,66.01
2017-04-24T01:12:11.690Z,65.63
2017-04-24T01:12:37.793Z,65.92
2017-04-24T01:13:03.896Z,65.63
2017-04-24T01:13:29.977Z,65.82
2017-04-24T01:13:56.057Z,65.82
2017-04-24T01:14:22.138Z,65.73
2017-04-24T01:14:48.218Z,65.73
2017-04-24T01:15:14.296Z,66.01
2017-04-24T01:15:40.400Z,66.2
2017-04-24T01:16:06.503Z,66.49
2017-04-24T01:16:32.606Z,66.2
2017-04-24T01:16:58.684Z,66.3
2017-04-24T01:17:24.788Z,66.49
2017-04-24T01:17:50.918Z,66.39
2017-04-24T01:18:17.021Z,66.2
2017-04-24T01:18:43.166Z,66.67
2017-04-24T01:19:09.269Z,66.49
2017-04-24T01:19:35.373Z,66.58
2017-04-24T01:20:01.503Z,66.49
2017-04-24T01:20:27.606Z,66.49
2017-04-24T01:20:53.687Z,66.39
2017-04-24T01:21:19.766Z,66.58
2017-04-24T01:21:45.895Z,66.58
2017-04-24T01:22:11.974Z,66.11
2017-04-24T01:22:38.068Z,66.49
2017-04-24T01:23:04.160Z,66.67
2017-04-24T01:23:30.309Z,66.58
2017-04-24T01:23:56.390Z,67.06
2017-04-24T01:24:22.540Z,67.06
2017-04-24T01:24:48.644Z,66.96
2017-04-24T01:25:14.722Z,66.96
2017-04-24T01:25:40.825Z,67.44
2017-04-24T01:26:06.908Z,67.15
2017-04-24T01:26:33.012Z,66.96
2017-04-24T01:26:59.090Z,66.96
2017-04-24T01:27:25.194Z,67.44
2017-04-24T01:27:51.298Z,68.01
2017-04-24T01:28:17.471Z,67.63
2017-04-24T01:28:43.598Z,68.1
2017-04-24T01:29:09.722Z,67.72
2017-04-24T01:29:35.828Z,68.19
2017-04-24T01:30:01.911Z,67.72
2017-04-24T01:30:28.013Z,68.1
2017-04-24T01:30:54.124Z,68.1
2017-04-24T01:31:20.202Z,68.19
2017-04-24T01:31:46.306Z,67.91
2017-04-24T01:32:12.411Z,67.91
2017-04-24T01:32:38.514Z,67.91
2017-04-24T01:33:04.615Z,67.53
2017-04-24T01:33:30.766Z,67.34
2017-04-24T01:33:56.870Z,68.01
2017-04-24T01:34:22.993Z,67.72
2017-04-24T01:34:49.094Z,67.91
2017-04-24T01:35:15.199Z,68.19
2017-04-24T01:35:41.301Z,68.01
2017-04-24T01:36:07.383Z,68.1
2017-04-24T01:36:33.488Z,67.63
2017-04-24T01:36:59.569Z,68.01
2017-04-24T01:37:25.648Z,67.91
2017-04-24T01:37:51.750Z,67.72
2017-04-24T01:38:17.853Z,68.19
2017-04-24T01:38:43.980Z,68.01
2017-04-24T01:39:10.105Z,67.91
2017-04-24T01:39:36.186Z,67.91
2017-04-24T01:40:02.315Z,67.91
2017-04-24T01:40:28.394Z,67.91
2017-04-24T01:40:54.476Z,68.01
2017-04-24T01:41:20.577Z,67.72
2017-04-24T01:41:46.657Z,67.72
2017-04-24T01:42:12.761Z,67.53
2017-04-24T01:42:38.866Z,67.53
2017-04-24T01:43:04.970Z,68.01
2017-04-24T01:43:31.099Z,68.19
2017-04-24T01:43:57.178Z,68.01
2017-04-24T01:44:23.281Z,68.01
2017-04-24T01:44:49.407Z,67.91
2017-04-24T01:45:15.531Z,68.1
2017-04-24T01:45:41.634Z,67.82
2017-04-24T01:46:07.720Z,67.91
2017-04-24T01:46:33.794Z,68.01
2017-04-24T01:46:59.873Z,67.63
2017-04-24T01:47:25.954Z,67.63
2017-04-24T01:47:52.059Z,67.72
2017-04-24T01:48:18.185Z,68.01
2017-04-24T01:48:44.288Z,68.58
2017-04-24T01:49:10.414Z,68.48
2017-04-24T01:49:36.539Z,68.48
2017-04-24T01:50:02.619Z,68.39
2017-04-24T01:50:28.746Z,68.58
2017-04-24T01:50:54.833Z,68.77
2017-04-24T01:51:20.908Z,68.58
2017-04-24T01:51:47.009Z,68.67
2017-04-24T01:52:13.088Z,68.86
2017-04-24T01:52:39.193Z,68.58
2017-04-24T01:53:05.322Z,68.48
2017-04-24T01:53:31.455Z,68.48
2017-04-24T01:53:57.530Z,68.77
2017-04-24T01:54:23.656Z,69.15
2017-04-24T01:54:49.781Z,68.86
2017-04-24T01:55:15.860Z,69.05
2017-04-24T01:55:41.944Z,69.62
2017-04-24T01:56:08.044Z,69.53
2017-04-24T01:56:34.127Z,69.53
2017-04-24T01:57:00.230Z,69.02
2017-04-24T01:57:26.310Z,69.78
2017-04-24T01:57:52.459Z,69.4
2017-04-24T01:58:18.542Z,69.49
2017-04-24T01:58:44.624Z,70.06
2017-04-24T01:59:10.750Z,69.96
2017-04-24T01:59:36.855Z,70.06
2017-04-24T02:00:02.977Z,70.25
2017-04-24T02:00:29.058Z,70.25
2017-04-24T02:00:55.141Z,70.15
2017-04-24T02:01:21.246Z,70.35
2017-04-24T02:01:47.351Z,70.54
2017-04-24T02:02:13.502Z,70.63
2017-04-24T02:02:39.584Z,70.44
2017-04-24T02:03:05.686Z,70.06
2017-04-24T02:03:31.787Z,70.73
2017-04-24T02:03:57.913Z,70.82
2017-04-24T02:04:24.040Z,70.92
2017-04-24T02:04:50.145Z,70.54
2017-04-24T02:05:16.226Z,71.01
2017-04-24T02:05:42.307Z,71.2
2017-04-24T02:06:08.390Z,71.01
2017-04-24T02:06:34.466Z,70.92
2017-04-24T02:07:00.550Z,70.92
2017-04-24T02:07:26.652Z,71.11
2017-04-24T02:07:52.755Z,71.11
2017-04-24T02:08:18.858Z,70.73
2017-04-24T02:08:44.981Z,70.63
2017-04-24T02:09:11.064Z,70.92
2017-04-24T02:09:37.167Z,71.77
2017-04-24T02:10:03.298Z,71.48
2017-04-24T02:10:29.404Z,72.15
2017-04-24T02:10:55.483Z,71.67
2017-04-24T02:11:21.563Z,72.06
2017-04-24T02:11:47.640Z,72.06
2017-04-24T02:12:13.745Z,71.96
2017-04-24T02:12:39.830Z,71.77
2017-04-24T02:13:05.956Z,71.86
2017-04-24T02:13:32.081Z,72.15
2017-04-24T02:13:58.250Z,71.58
2017-04-24T02:14:24.352Z,71.86
2017-04-24T02:14:50.433Z,72.34
2017-04-24T02:15:16.513Z,72.06
2017-04-24T02:15:42.612Z,72.63
2017-04-24T02:16:08.712Z,73
2017-04-24T02:16:34.792Z,72.81
2017-04-24T02:17:00.869Z,72.91
2017-04-24T02:17:26.946Z,72.81
2017-04-24T02:17:53.051Z,72.72
2017-04-24T02:18:19.175Z,72.91
2017-04-24T02:18:45.282Z,72.91
2017-04-24T02:19:11.406Z,73.16
2017-04-24T02:19:37.556Z,73.38
2017-04-24T02:20:03.658Z,72.91
2017-04-24T02:20:29.783Z,72.91
2017-04-24T02:20:55.864Z,73.1
2017-04-24T02:21:21.943Z,73
2017-04-24T02:21:48.025Z,73.07
2017-04-24T02:22:14.150Z,73.82
2017-04-24T02:22:40.252Z,73.38
2017-04-24T02:23:06.332Z,73.48
2017-04-24T02:23:32.438Z,73.57
2017-04-24T02:23:58.565Z,73.54
2017-04-24T02:24:24.716Z,73.54
2017-04-24T02:24:50.821Z,73.63
2017-04-24T02:25:16.924Z,73.63
2017-04-24T02:25:43.032Z,74.01
2017-04-24T02:26:09.159Z,74.52
2017-04-24T02:26:35.263Z,74.11
2017-04-24T02:27:01.395Z,74.3
2017-04-24T02:27:27.476Z,74.11
2017-04-24T02:27:53.600Z,74.39
2017-04-24T02:28:19.677Z,74.3
2017-04-24T02:28:45.779Z,74.2
2017-04-24T02:29:11.908Z,74.2
2017-04-24T02:29:38.010Z,74.2
2017-04-24T02:30:04.115Z,74.49
2017-04-24T02:30:30.193Z,74.49
2017-04-24T02:30:56.272Z,74.43
2017-04-24T02:31:22.356Z,74.3
2017-04-24T02:31:48.436Z,74.58
2017-04-24T02:32:14.536Z,74.58
2017-04-24T02:32:40.641Z,74.58
2017-04-24T02:33:06.743Z,74.96
2017-04-24T02:33:32.871Z,74.58
2017-04-24T02:33:58.999Z,74.96
2017-04-24T02:34:25.109Z,75.43
2017-04-24T02:34:51.182Z,75.53
2017-04-24T02:35:17.261Z,75.53
2017-04-24T02:35:43.343Z,75.72
2017-04-24T02:36:09.448Z,75.72
2017-04-24T02:36:35.529Z,76.01
2017-04-24T02:37:01.612Z,75.62
2017-04-24T02:37:27.716Z,75.34
2017-04-24T02:37:53.793Z,75.72
2017-04-24T02:38:19.920Z,75.53
2017-04-24T02:38:46.049Z,75.53
2017-04-24T02:39:12.152Z,75.43
2017-04-24T02:39:38.278Z,76.01
2017-04-24T02:40:04.385Z,75.81
2017-04-24T02:40:30.463Z,75.91
2017-04-24T02:40:56.562Z,76.01
2017-04-24T02:41:22.664Z,76.01
2017-04-24T02:41:48.766Z,75.91
2017-04-24T02:42:14.870Z,76.29
2017-04-24T02:42:40.974Z,76.1
2017-04-24T02:43:07.077Z,76.1
2017-04-24T02:43:33.180Z,76.01
2017-04-24T02:43:59.329Z,76.01
2017-04-24T02:44:25.499Z,75.72
2017-04-24T02:44:51.579Z,76.1
2017-04-24T02:45:17.683Z,75.81
2017-04-24T02:45:43.810Z,76.1
2017-04-24T02:46:09.886Z,76.2
2017-04-24T02:46:35.966Z,76.67
2017-04-24T02:47:02.114Z,76.76
2017-04-24T02:47:28.217Z,76.67
2017-04-24T02:47:54.320Z,76.67
2017-04-24T02:48:20.425Z,76.39
2017-04-24T02:48:46.573Z,76.48
2017-04-24T02:49:12.699Z,76.67
2017-04-24T02:49:38.802Z,76.1
2017-04-24T02:50:04.908Z,76.39
2017-04-24T02:50:31.037Z,76.39
2017-04-24T02:50:57.118Z,76.48
2017-04-24T02:51:23.222Z,76.2
2017-04-24T02:51:49.303Z,76.48
2017-04-24T02:52:15.406Z,76.48
2017-04-24T02:52:41.485Z,76.29
2017-04-24T02:53:07.635Z,76.48
2017-04-24T02:53:33.736Z,76.67
2017-04-24T02:53:59.840Z,76.39
2017-04-24T02:54:25.919Z,76.76
2017-04-24T02:54:51.999Z,76.39
2017-04-24T02:55:18.101Z,76.48
2017-04-24T02:55:44.205Z,76.86
2017-04-24T02:56:10.285Z,76.76
2017-04-24T02:56:36.363Z,76.29
2017-04-24T02:57:02.467Z,76.48
2017-04-24T02:57:28.573Z,76.39
2017-04-24T02:57:54.655Z,76.29
2017-04-24T02:58:20.759Z,76.39
2017-04-24T02:58:46.905Z,76.39
2017-04-24T02:59:13.008Z,76.67
2017-04-24T02:59:39.090Z,76.48
2017-04-24T03:00:05.191Z,76.67
2017-04-24T03:00:31.299Z,76.67
2017-04-24T03:00:57.400Z,76.48
2017-04-24T03:01:23.482Z,76.29
2017-04-24T03:01:49.582Z,76.67
2017-04-24T03:02:15.687Z,76.57
2017-04-24T03:02:41.787Z,76.67
2017-04-24T03:03:07.916Z,76.76
2017-04-24T03:03:34.040Z,76.39
2017-04-24T03:04:00.166Z,76.29
2017-04-24T03:04:26.267Z,76.76
2017-04-24T03:04:52.396Z,76.67
2017-04-24T03:05:18.523Z,76.67
2017-04-24T03:05:44.629Z,76.67
2017-04-24T03:06:10.748Z,76.67
2017-04-24T03:06:36.876Z,76.39
2017-04-24T03:07:02.957Z,76.57
2017-04-24T03:07:29.060Z,76.67
2017-04-24T03:07:55.214Z,76.48
2017-04-24T03:08:21.348Z,76.29
2017-04-24T03:08:47.489Z,76.39
2017-04-24T03:09:13.611Z,76.2
2017-04-24T03:09:39.692Z,76.39
2017-04-24T03:10:05.772Z,76.48
2017-04-24T03:10:31.924Z,76.67
2017-04-24T03:10:57.977Z,76.95
2017-04-24T03:11:24.078Z,76.95
2017-04-24T03:11:50.157Z,76.86
2017-04-24T03:12:16.237Z,76.95
2017-04-24T03:12:42.342Z,77.52
2017-04-24T03:13:08.493Z,77.33
2017-04-24T03:13:34.622Z,77.52
2017-04-24T03:14:00.703Z,77.24
2017-04-24T03:14:26.809Z,77.33
2017-04-24T03:14:52.890Z,77.33
2017-04-24T03:15:19.013Z,77.33
2017-04-24T03:15:45.092Z,77.24
2017-04-24T03:16:11.173Z,77.43
2017-04-24T03:16:37.256Z,77.33
2017-04-24T03:17:03.344Z,77.33
2017-04-24T03:17:29.462Z,77.52
2017-04-24T03:17:55.542Z,77.24
2017-04-24T03:18:21.669Z,77.24
2017-04-24T03:18:47.771Z,77.33
2017-04-24T03:19:13.901Z,77.33
2017-04-24T03:19:39.981Z,77.43
2017-04-24T03:20:06.060Z,77.52
2017-04-24T03:20:32.162Z,77.29
2017-04-24T03:20:58.242Z,77.29
2017-04-24T03:21:24.322Z,77.81
2017-04-24T03:21:50.403Z,77.71
2017-04-24T03:22:16.527Z,77.52
2017-04-24T03:22:42.608Z,77.33
2017-04-24T03:23:08.714Z,77.33
2017-04-24T03:23:34.841Z,77.05
2017-04-24T03:24:00.991Z,77.2
2017-04-24T03:24:27.097Z,77.33
2017-04-24T03:24:53.202Z,77.33
2017-04-24T03:25:19.305Z,77.33
2017-04-24T03:25:45.386Z,77.14
2017-04-24T03:26:11.486Z,77.48
2017-04-24T03:26:37.563Z,77.2
2017-04-24T03:27:03.694Z,77.52
2017-04-24T03:27:29.797Z,77.48
2017-04-24T03:27:55.874Z,77.14
2017-04-24T03:28:21.977Z,77.24
2017-04-24T03:28:48.126Z,77.24
2017-04-24T03:29:14.253Z,77.52
2017-04-24T03:29:40.334Z,77.33
2017-04-24T03:30:06.433Z,77.33
2017-04-24T03:30:32.536Z,77.33
2017-04-24T03:30:58.638Z,77.14
2017-04-24T03:31:24.719Z,77.33
2017-04-24T03:31:50.823Z,77.33
2017-04-24T03:32:16.926Z,77.14
2017-04-24T03:32:43.009Z,77.14
2017-04-24T03:33:09.113Z,77.33
2017-04-24T03:33:35.239Z,77.33
2017-04-24T03:34:01.391Z,77.24
2017-04-24T03:34:27.519Z,77.52
2017-04-24T03:34:53.597Z,77.14
2017-04-24T03:35:19.699Z,77.52
2017-04-24T03:35:45.830Z,76.86
2017-04-24T03:36:11.910Z,76.95
2017-04-24T03:36:37.991Z,76.86
2017-04-24T03:37:04.071Z,77.05
2017-04-24T03:37:30.172Z,77.24
2017-04-24T03:37:56.299Z,77.14
2017-04-24T03:38:22.407Z,77.14
2017-04-24T03:38:48.527Z,77.33
2017-04-24T03:39:14.653Z,77.43
2017-04-24T03:39:40.802Z,77.24
2017-04-24T03:40:06.930Z,77.33
2017-04-24T03:40:33.054Z,77.24
2017-04-24T03:40:59.157Z,77.52
2017-04-24T03:41:25.235Z,77.43
2017-04-24T03:41:51.341Z,77.43
2017-04-24T03:42:17.447Z,76.86
2017-04-24T03:42:43.600Z,76.86
2017-04-24T03:43:09.724Z,76.86
2017-04-24T03:43:35.849Z,77.14
2017-04-24T03:44:01.951Z,77.05
2017-04-24T03:44:28.104Z,76.86
2017-04-24T03:44:54.201Z,77.05
2017-04-24T03:45:20.280Z,76.86
2017-04-24T03:45:46.364Z,76.95
2017-04-24T03:46:12.447Z,76.95
2017-04-24T03:46:38.568Z,77.05
2017-04-24T03:47:04.649Z,76.86
2017-04-24T03:47:30.751Z,76.76
2017-04-24T03:47:56.879Z,76.95
2017-04-24T03:48:23.003Z,77.05
2017-04-24T03:48:49.130Z,77.05
2017-04-24T03:49:15.254Z,77.14
2017-04-24T03:49:41.332Z,76.95
2017-04-24T03:50:07.456Z,77.43
2017-04-24T03:50:33.557Z,77.33
2017-04-24T03:50:59.661Z,77.05
2017-04-24T03:51:25.762Z,76.76
2017-04-24T03:51:51.843Z,77.05
2017-04-24T03:52:17.924Z,76.67
2017-04-24T03:52:44.027Z,76.39
2017-04-24T03:53:10.110Z,76.86
2017-04-24T03:53:36.236Z,76.39
2017-04-24T03:54:02.314Z,76.39
2017-04-24T03:54:28.436Z,76.57
2017-04-24T03:54:54.540Z,76.29
2017-04-24T03:55:20.643Z,76.39
2017-04-24T03:55:46.749Z,76.86
2017-04-24T03:56:12.854Z,76.67
2017-04-24T03:56:38.979Z,76.76
2017-04-24T03:57:05.058Z,76.48
2017-04-24T03:57:31.137Z,76.76
2017-04-24T03:57:57.263Z,76.67
2017-04-24T03:58:23.386Z,76.29
2017-04-24T03:58:49.513Z,76.67
2017-04-24T03:59:15.616Z,76.48
2017-04-24T03:59:41.716Z,76.57
2017-04-24T04:00:07.819Z,76.48
2017-04-24T04:00:33.922Z,76.48
2017-04-24T04:01:00.025Z,77.05
2017-04-24T04:01:26.129Z,76.95
2017-04-24T04:01:52.228Z,76.86
2017-04-24T04:02:18.332Z,77.33
2017-04-24T04:02:44.483Z,77.05
2017-04-24T04:03:10.586Z,77.05
2017-04-24T04:03:36.712Z,77.43
2017-04-24T04:04:02.881Z,76.95
2017-04-24T04:04:28.983Z,76.95
2017-04-24T04:04:55.086Z,76.86
2017-04-24T04:05:21.186Z,76.86
2017-04-24T04:05:47.267Z,76.76
2017-04-24T04:06:13.342Z,76.86
2017-04-24T04:06:39.443Z,77.05
2017-04-24T04:07:05.525Z,76.86
2017-04-24T04:07:31.630Z,77.05
2017-04-24T04:07:57.787Z,76.76
2017-04-24T04:08:23.838Z,76.86
2017-04-24T04:08:49.983Z,76.95
2017-04-24T04:09:16.115Z,76.76
2017-04-24T04:09:42.250Z,76.95
2017-04-24T04:10:08.352Z,76.76
2017-04-24T04:10:34.434Z,76.86
2017-04-24T04:11:00.514Z,76.57
2017-04-24T04:11:26.598Z,76.95
2017-04-24T04:11:52.696Z,76.67
2017-04-24T04:12:18.801Z,76.48
2017-04-24T04:12:44.924Z,76.29
2017-04-24T04:13:11.027Z,76.48
2017-04-24T04:13:37.130Z,76.39
2017-04-24T04:14:03.231Z,76.2
2017-04-24T04:14:29.313Z,76.29
2017-04-24T04:14:55.391Z,76.57
2017-04-24T04:15:21.469Z,76.29
2017-04-24T04:15:47.573Z,76.2
2017-04-24T04:16:13.652Z,76.2
2017-04-24T04:16:39.776Z,76.29
2017-04-24T04:17:05.882Z,76.48
2017-04-24T04:17:31.981Z,76.48
2017-04-24T04:17:58.083Z,76.48
2017-04-24T04:18:24.165Z,76.48
2017-04-24T04:18:50.287Z,77.14
2017-04-24T04:19:16.391Z,76.86
2017-04-24T04:19:42.470Z,76.95
2017-04-24T04:20:08.576Z,76.86
2017-04-24T04:20:34.656Z,76.76
2017-04-24T04:21:00.735Z,76.67
2017-04-24T04:21:26.812Z,76.39
2017-04-24T04:21:52.933Z,76.86
2017-04-24T04:22:19.020Z,77.14
2017-04-24T04:22:45.120Z,77.24
2017-04-24T04:23:11.201Z,76.86
2017-04-24T04:23:37.375Z,76.86
2017-04-24T04:24:03.501Z,76.95
2017-04-24T04:24:29.580Z,76.76
2017-04-24T04:24:55.709Z,76.86
2017-04-24T04:25:21.811Z,77.14
2017-04-24T04:25:47.888Z,76.95
2017-04-24T04:26:13.968Z,77.05
2017-04-24T04:26:40.049Z,76.86
2017-04-24T04:27:06.149Z,77.33
2017-04-24T04:27:32.230Z,77.52
2017-04-24T04:27:58.356Z,76.95
2017-04-24T04:28:24.504Z,77.33
2017-04-24T04:28:50.604Z,77.14
2017-04-24T04:29:16.711Z,77.33
2017-04-24T04:29:42.817Z,77.29
2017-04-24T04:30:08.897Z,77.52
2017-04-24T04:30:35.001Z,77.33
2017-04-24T04:31:01.082Z,77.52
2017-04-24T04:31:27.185Z,76.86
2017-04-24T04:31:53.287Z,77.29
2017-04-24T04:32:19.367Z,77.33
2017-04-24T04:32:45.472Z,77.52
2017-04-24T04:33:11.577Z,77.14
2017-04-24T04:33:37.705Z,77.43
2017-04-24T04:34:03.785Z,77.05
2017-04-24T04:34:29.910Z,77.33
2017-04-24T04:34:55.990Z,77.29
2017-04-24T04:35:22.093Z,77.33
2017-04-24T04:35:48.175Z,77.52
2017-04-24T04:36:14.254Z,77.48
2017-04-24T04:36:40.393Z,77.24
2017-04-24T04:37:06.482Z,77.29
2017-04-24T04:37:32.614Z,77.29
2017-04-24T04:37:58.738Z,77.14
2017-04-24T04:38:24.888Z,77.01
2017-04-24T04:38:51.014Z,77.05
2017-04-24T04:39:17.137Z,77.2
2017-04-24T04:39:43.241Z,77.33
2017-04-24T04:40:09.342Z,77.24
2017-04-24T04:40:35.442Z,77.2
2017-04-24T04:41:01.567Z,77.39
2017-04-24T04:41:27.647Z,77.14
2017-04-24T04:41:53.752Z,77.33
2017-04-24T04:42:19.855Z,77.52
2017-04-24T04:42:45.981Z,77.11
2017-04-24T04:43:12.083Z,77.2
2017-04-24T04:43:38.185Z,77.29
2017-04-24T04:44:04.334Z,77.48
2017-04-24T04:44:30.483Z,77.77
2017-04-24T04:44:56.564Z,77.58
2017-04-24T04:45:22.643Z,78.05
2017-04-24T04:45:48.722Z,77.67
2017-04-24T04:46:14.823Z,78.05
2017-04-24T04:46:40.924Z,77.39
2017-04-24T04:47:07.007Z,77.86
2017-04-24T04:47:33.090Z,77.58
2017-04-24T04:47:59.195Z,77.39
2017-04-24T04:48:25.346Z,77.77
2017-04-24T04:48:51.473Z,77.33
2017-04-24T04:49:17.599Z,77.2
2017-04-24T04:49:43.722Z,77.62
2017-04-24T04:50:09.827Z,77.52
2017-04-24T04:50:35.906Z,77.29
2017-04-24T04:51:01.986Z,77.01
2017-04-24T04:51:28.065Z,77.48
2017-04-24T04:51:54.146Z,77.11
2017-04-24T04:52:20.250Z,77.29
2017-04-24T04:52:46.356Z,77.14
2017-04-24T04:53:12.479Z,77.39
2017-04-24T04:53:38.591Z,77.39
2017-04-24T04:54:04.686Z,77.24
2017-04-24T04:54:30.810Z,77.14
2017-04-24T04:54:56.895Z,77.24
2017-04-24T04:55:23.000Z,76.95
2017-04-24T04:55:49.084Z,77.33
2017-04-24T04:56:15.163Z,76.95
2017-04-24T04:56:41.313Z,77.14
2017-04-24T04:57:07.439Z,76.48
2017-04-24T04:57:33.541Z,76.29
2017-04-24T04:57:59.622Z,76.39
2017-04-24T04:58:25.748Z,76.48
2017-04-24T04:58:51.878Z,76.39
2017-04-24T04:59:17.984Z,76.48
2017-04-24T04:59:44.110Z,76.67
2017-04-24T05:00:10.212Z,76.1
2017-04-24T05:00:36.295Z,76.48
2017-04-24T05:01:02.396Z,76.2
2017-04-24T05:01:28.475Z,76.01
2017-04-24T05:01:54.580Z,75.91
2017-04-24T05:02:20.660Z,75.91
2017-04-24T05:02:46.809Z,76.2
2017-04-24T05:03:12.914Z,76.01
2017-04-24T05:03:39.016Z,76.1
2017-04-24T05:04:05.117Z,76.1
2017-04-24T05:04:31.244Z,76.2
2017-04-24T05:04:57.345Z,75.91
2017-04-24T05:05:23.448Z,76.01
2017-04-24T05:05:49.530Z,76.01
2017-04-24T05:06:15.631Z,76.2
2017-04-24T05:06:41.711Z,76.1
2017-04-24T05:07:07.841Z,76.29
2017-04-24T05:07:33.920Z,75.81
2017-04-24T05:07:59.999Z,76.01
2017-04-24T05:08:26.078Z,75.81
2017-04-24T05:08:52.227Z,75.43
2017-04-24T05:09:18.305Z,75.43
2017-04-24T05:09:44.413Z,75.62
2017-04-24T05:10:10.515Z,75.62
2017-04-24T05:10:36.642Z,75.72
2017-04-24T05:11:02.721Z,75.53
2017-04-24T05:11:28.827Z,75.43
2017-04-24T05:11:54.926Z,75.53
2017-04-24T05:12:21.005Z,75.34
2017-04-24T05:12:47.110Z,75.53
2017-04-24T05:13:13.236Z,75.24
2017-04-24T05:13:39.315Z,74.9
2017-04-24T05:14:05.399Z,75
2017-04-24T05:14:31.527Z,74.62
2017-04-24T05:14:57.678Z,74.71
2017-04-24T05:15:23.784Z,75
2017-04-24T05:15:49.865Z,74.96
2017-04-24T05:16:15.944Z,74.62
2017-04-24T05:16:42.024Z,74.96
2017-04-24T05:17:08.149Z,74.77
2017-04-24T05:17:34.231Z,75
2017-04-24T05:18:00.361Z,75
2017-04-24T05:18:26.466Z,74.71
2017-04-24T05:18:52.589Z,74.71
2017-04-24T05:19:18.694Z,74.9
2017-04-24T05:19:44.796Z,74.96
2017-04-24T05:20:10.874Z,74.71
2017-04-24T05:20:36.954Z,74.81
2017-04-24T05:21:03.035Z,74.62
2017-04-24T05:21:29.163Z,74.62
2017-04-24T05:21:55.243Z,74.43
2017-04-24T05:22:21.371Z,74.24
2017-04-24T05:22:47.453Z,74.15
2017-04-24T05:23:13.556Z,74.15
2017-04-24T05:23:39.635Z,74.43
2017-04-24T05:24:05.762Z,74.81
2017-04-24T05:24:31.866Z,74.52
2017-04-24T05:24:57.946Z,74.52
2017-04-24T05:25:24.026Z,74.33
2017-04-24T05:25:50.107Z,74.33
2017-04-24T05:26:16.185Z,74.43
2017-04-24T05:26:42.334Z,74.15
2017-04-24T05:27:08.414Z,74.15
2017-04-24T05:27:34.497Z,74.43
2017-04-24T05:28:00.647Z,74.52
2017-04-24T05:28:26.750Z,74.24
2017-04-24T05:28:52.856Z,74.15
2017-04-24T05:29:18.957Z,74.43
2017-04-24T05:29:45.061Z,74.15
2017-04-24T05:30:11.163Z,74.33
2017-04-24T05:30:37.268Z,74.43
2017-04-24T05:31:03.371Z,74.24
2017-04-24T05:31:29.473Z,74.43
2017-04-24T05:31:55.554Z,74.43
2017-04-24T05:32:21.637Z,74.81
2017-04-24T05:32:47.763Z,74.81
2017-04-24T05:33:13.888Z,74.24
2017-04-24T05:33:40.014Z,74.33
2017-04-24T05:34:06.096Z,74.33
2017-04-24T05:34:32.244Z,74.24
2017-04-24T05:34:58.373Z,74.43
2017-04-24T05:35:24.474Z,74.33
2017-04-24T05:35:50.581Z,73.96
2017-04-24T05:36:16.662Z,74.24
2017-04-24T05:36:42.761Z,74.24
2017-04-24T05:37:08.842Z,74.24
2017-04-24T05:37:34.923Z,74.33